createdAt,value
2023-03-29T00:01:42.546Z,78.91
2023-03-29T00:04:10.342Z,78.64
2023-03-29T00:06:38.074Z,79.79
2023-03-29T00:09:06.327Z,79.52
2023-03-29T00:11:33.484Z,78.28
2023-03-29T00:14:00.252Z,80.03
2023-03-29T00:16:27.236Z,79.64
2023-03-29T00:18:53.931Z,79.36
2023-03-29T00:21:20.852Z,79.06
2023-03-29T00:23:47.518Z,80.61
2023-03-29T00:26:14.225Z,80.08
2023-03-29T00:28:41.073Z,80.73
2023-03-29T00:31:13.758Z,80.82
2023-03-29T00:33:41.596Z,81.30
2023-03-29T00:36:10.496Z,81.85
2023-03-29T00:38:37.866Z,82.14
2023-03-29T00:41:06.709Z,80.57
2023-03-29T00:43:51.900Z,81.15
2023-03-29T00:46:18.868Z,81.01
2023-03-29T00:48:45.723Z,80.44
2023-03-29T00:51:14.968Z,82.19
2023-03-29T00:53:48.710Z,81.76
2023-03-29T00:56:19.806Z,81.62
2023-03-29T00:58:59.400Z,80.89
2023-03-29T01:01:34.329Z,80.97
2023-03-29T01:04:08.619Z,81.93
2023-03-29T01:06:37.731Z,81.75
2023-03-29T01:09:08.940Z,80.50
2023-03-29T01:11:42.066Z,81.16
2023-03-29T01:14:19.003Z,81.44
2023-03-29T01:16:46.281Z,80.62
2023-03-29T01:19:17.858Z,81.73
2023-03-29T01:21:54.347Z,81.58
2023-03-29T01:24:34.728Z,80.76
2023-03-29T01:27:32.072Z,81.38
2023-03-29T01:30:04.416Z,81.27
2023-03-29T01:32:36.293Z,80.37
2023-03-29T01:35:10.744Z,79.15
2023-03-29T01:37:43.580Z,80.28
2023-03-29T01:40:10.836Z,80.17
2023-03-29T01:42:56.344Z,79.66
2023-03-29T01:45:27.490Z,80.27
2023-03-29T01:48:00.163Z,80.06
2023-03-29T01:50:26.953Z,79.59
2023-03-29T01:53:09.516Z,79.17
2023-03-29T01:55:39.625Z,78.69
2023-03-29T01:58:10.593Z,79.54
2023-03-29T02:00:40.168Z,79.39
2023-03-29T02:03:08.787Z,79.25
2023-03-29T02:05:38.721Z,79.57
2023-03-29T02:08:08.329Z,80.02
2023-03-29T02:10:36.054Z,79.94
2023-03-29T02:13:03.258Z,79.79
2023-03-29T02:15:30.082Z,78.64
2023-03-29T02:17:57.210Z,79.58
2023-03-29T02:20:47.558Z,79.21
2023-03-29T02:23:21.460Z,78.80
2023-03-29T02:25:51.168Z,80.28
2023-03-29T02:28:17.930Z,79.79
2023-03-29T02:31:10.730Z,80.06
2023-03-29T02:33:55.752Z,80.20
2023-03-29T02:36:29.640Z,80.42
2023-03-29T02:38:58.624Z,81.17
2023-03-29T02:41:26.560Z,80.86
2023-03-29T02:43:56.132Z,80.76
2023-03-29T02:46:23.886Z,80.77
2023-03-29T02:48:53.541Z,80.41
2023-03-29T02:51:24.401Z,80.22
2023-03-29T02:54:05.833Z,80.33
2023-03-29T02:56:46.390Z,80.18
2023-03-29T02:59:14.380Z,81.12
2023-03-29T03:01:44.012Z,80.08
2023-03-29T03:04:11.649Z,79.98
2023-03-29T03:06:38.882Z,79.78
2023-03-29T03:09:06.197Z,81.13
2023-03-29T03:11:34.107Z,80.28
2023-03-29T03:14:01.122Z,81.04
2023-03-29T03:16:28.198Z,80.82
2023-03-29T03:18:55.799Z,80.30
2023-03-29T03:21:23.123Z,80.76
2023-03-29T03:23:50.338Z,80.93
2023-03-29T03:26:18.364Z,80.50
2023-03-29T03:28:46.081Z,81.22
2023-03-29T03:31:15.763Z,80.65
2023-03-29T03:33:42.690Z,81.27
2023-03-29T03:36:11.411Z,81.11
2023-03-29T03:38:38.785Z,80.43
2023-03-29T03:41:07.236Z,81.00
2023-03-29T03:43:34.351Z,81.41
2023-03-29T03:46:01.659Z,81.23
2023-03-29T03:48:28.660Z,80.80
2023-03-29T03:50:58.432Z,80.86
2023-03-29T03:53:27.452Z,81.17
2023-03-29T03:55:56.174Z,81.32
2023-03-29T03:58:23.436Z,81.64
2023-03-29T04:00:51.515Z,81.01
2023-03-29T04:03:18.886Z,80.83
2023-03-29T04:05:46.934Z,81.10
2023-03-29T04:08:15.127Z,81.08
2023-03-29T04:10:41.878Z,80.53
2023-03-29T04:13:08.561Z,81.15
2023-03-29T04:15:38.872Z,80.88
2023-03-29T04:18:07.636Z,81.17
2023-03-29T04:20:34.781Z,80.76
2023-03-29T04:23:01.984Z,82.03
2023-03-29T04:25:29.094Z,81.03
2023-03-29T04:27:56.309Z,81.80
2023-03-29T04:30:23.040Z,81.55
2023-03-29T04:32:49.800Z,81.17
2023-03-29T04:35:16.801Z,80.80
2023-03-29T04:37:43.821Z,81.07
2023-03-29T04:40:15.029Z,81.49
2023-03-29T04:42:44.944Z,81.46
2023-03-29T04:45:14.244Z,81.95
2023-03-29T04:47:42.224Z,81.62
2023-03-29T04:50:09.353Z,80.61
2023-03-29T04:52:36.367Z,81.33
2023-03-29T04:55:04.778Z,81.41
2023-03-29T04:57:31.868Z,81.46
2023-03-29T04:59:58.650Z,80.93
2023-03-29T05:02:25.392Z,80.76
2023-03-29T05:04:52.379Z,81.23
2023-03-29T05:07:19.744Z,81.01
2023-03-29T05:09:46.529Z,81.28
2023-03-29T05:12:13.361Z,81.40
2023-03-29T05:14:40.049Z,82.06
2023-03-29T05:17:06.829Z,82.10
2023-03-29T05:19:33.880Z,82.69
2023-03-29T05:22:00.940Z,81.33
2023-03-29T05:24:27.677Z,81.39
2023-03-29T05:26:54.632Z,81.51
2023-03-29T05:29:21.846Z,81.44
2023-03-29T05:31:48.612Z,81.40
2023-03-29T05:34:15.375Z,81.30
2023-03-29T05:36:43.021Z,81.49
2023-03-29T05:39:11.094Z,81.91
2023-03-29T05:41:38.128Z,81.99
2023-03-29T05:44:04.876Z,82.01
2023-03-29T05:46:31.800Z,82.76
2023-03-29T05:48:58.542Z,82.71
2023-03-29T05:51:25.217Z,83.08
2023-03-29T05:53:52.315Z,83.10
2023-03-29T05:56:19.404Z,83.00
2023-03-29T05:58:54.765Z,83.99
2023-03-29T06:01:22.789Z,83.69
2023-03-29T06:03:49.681Z,83.71
2023-03-29T06:06:16.883Z,83.90
2023-03-29T06:08:44.805Z,84.63
2023-03-29T06:11:13.570Z,84.63
2023-03-29T06:13:42.317Z,85.91
2023-03-29T06:16:11.127Z,85.42
2023-03-29T06:18:40.450Z,85.63
2023-03-29T06:21:09.437Z,85.75
2023-03-29T06:23:36.619Z,86.03
2023-03-29T06:26:04.608Z,85.79
2023-03-29T06:28:31.280Z,86.29
2023-03-29T06:31:03.015Z,86.31
2023-03-29T06:33:32.555Z,86.64
2023-03-29T06:35:59.659Z,87.15
2023-03-29T06:38:28.635Z,87.94
2023-03-29T06:41:06.918Z,88.68
2023-03-29T06:43:34.906Z,89.92
2023-03-29T06:46:02.146Z,90.09
2023-03-29T06:48:29.570Z,90.88
2023-03-29T06:50:56.622Z,90.74
2023-03-29T06:53:23.449Z,91.10
2023-03-29T06:55:52.083Z,90.70
2023-03-29T06:58:19.060Z,91.41
2023-03-29T07:00:45.950Z,91.34
2023-03-29T07:03:20.145Z,91.57
2023-03-29T07:05:47.869Z,91.86
2023-03-29T07:08:16.664Z,92.02
2023-03-29T07:10:45.908Z,92.47
2023-03-29T07:13:13.463Z,92.45
2023-03-29T07:15:41.675Z,92.69
2023-03-29T07:18:09.984Z,92.56
2023-03-29T07:20:39.207Z,93.07
2023-03-29T07:23:07.070Z,93.91
2023-03-29T07:25:34.319Z,93.37
2023-03-29T07:28:01.044Z,93.24
2023-03-29T07:30:32.003Z,93.41
2023-03-29T07:32:59.918Z,92.66
2023-03-29T07:35:27.705Z,93.15
2023-03-29T07:37:56.020Z,93.32
2023-03-29T07:40:24.410Z,92.18
2023-03-29T07:42:54.771Z,92.12
2023-03-29T07:45:26.535Z,92.63
2023-03-29T07:47:59.644Z,92.10
2023-03-29T07:50:32.731Z,92.60
2023-03-29T07:53:01.044Z,92.48
2023-03-29T07:55:28.010Z,91.45
2023-03-29T07:57:55.452Z,91.66
2023-03-29T08:00:22.584Z,91.16
2023-03-29T08:02:51.009Z,92.01
2023-03-29T08:05:26.174Z,92.05
2023-03-29T08:08:01.113Z,92.60
2023-03-29T08:10:28.684Z,91.66
2023-03-29T08:12:55.542Z,91.32
2023-03-29T08:15:23.057Z,91.94
2023-03-29T08:17:49.852Z,91.57
2023-03-29T08:20:16.634Z,91.99
2023-03-29T08:22:43.768Z,92.08
2023-03-29T08:25:11.874Z,92.46
2023-03-29T08:27:39.329Z,91.76
2023-03-29T08:30:09.629Z,91.49
2023-03-29T08:32:37.907Z,91.39
2023-03-29T08:35:05.472Z,92.11
2023-03-29T08:37:32.800Z,91.16
2023-03-29T08:39:59.578Z,90.43
2023-03-29T08:42:28.991Z,90.44
2023-03-29T08:45:22.560Z,89.99
2023-03-29T08:47:59.975Z,89.80
2023-03-29T08:50:44.241Z,89.14
2023-03-29T08:53:36.751Z,88.70
2023-03-29T08:56:09.060Z,88.61
2023-03-29T08:58:38.923Z,86.56
2023-03-29T09:01:09.404Z,85.86
2023-03-29T09:03:50.442Z,86.88
2023-03-29T09:06:21.566Z,87.20
2023-03-29T09:08:50.613Z,85.42
2023-03-29T09:11:46.060Z,85.94
2023-03-29T09:14:31.443Z,84.93
2023-03-29T09:17:04.148Z,84.08
2023-03-29T09:19:51.378Z,84.50
2023-03-29T09:22:34.016Z,84.50
2023-03-29T09:25:21.697Z,84.35
2023-03-29T09:27:54.553Z,83.75
2023-03-29T09:30:27.872Z,82.10
2023-03-29T09:33:08.993Z,83.13
2023-03-29T09:35:47.648Z,82.09
2023-03-29T09:38:15.977Z,81.71
2023-03-29T09:40:45.069Z,81.05
2023-03-29T09:43:15.578Z,81.95
2023-03-29T09:45:43.892Z,81.68
2023-03-29T09:48:15.143Z,80.66
2023-03-29T09:50:46.997Z,79.85
2023-03-29T09:53:17.950Z,81.42
2023-03-29T09:55:49.758Z,82.33
2023-03-29T09:58:21.924Z,81.82
2023-03-29T10:00:49.783Z,81.40
2023-03-29T10:03:22.057Z,79.39
2023-03-29T10:05:53.492Z,80.21
2023-03-29T10:08:27.471Z,79.69
2023-03-29T10:10:57.809Z,78.03
2023-03-29T10:13:33.668Z,77.82
2023-03-29T10:16:08.173Z,76.83
2023-03-29T10:18:43.047Z,77.19
2023-03-29T10:21:17.475Z,75.89
2023-03-29T10:23:44.489Z,76.02
2023-03-29T10:26:23.104Z,76.27
2023-03-29T10:28:54.111Z,76.87
2023-03-29T10:31:22.841Z,76.56
2023-03-29T10:33:57.449Z,76.91
2023-03-29T10:36:27.262Z,76.93
2023-03-29T10:38:58.296Z,75.46
2023-03-29T10:41:27.295Z,76.24
2023-03-29T10:43:54.508Z,75.54
2023-03-29T10:46:27.432Z,75.55
2023-03-29T10:49:06.051Z,74.54
2023-03-29T10:51:34.635Z,75.82
2023-03-29T10:54:02.506Z,74.96
2023-03-29T10:56:32.187Z,74.90
2023-03-29T10:59:11.044Z,75.91
2023-03-29T11:01:50.024Z,74.33
2023-03-29T11:04:32.183Z,74.86
2023-03-29T11:07:22.797Z,76.32
2023-03-29T11:10:21.766Z,75.92
2023-03-29T11:13:08.573Z,75.86
2023-03-29T11:16:12.974Z,75.74
2023-03-29T11:18:46.266Z,75.97
2023-03-29T11:21:16.593Z,75.45
2023-03-29T11:24:25.247Z,75.03
2023-03-29T11:27:10.421Z,73.88
2023-03-29T11:29:44.715Z,73.81
2023-03-29T11:32:41.670Z,74.14
2023-03-29T11:35:33.630Z,73.02
2023-03-29T11:38:44.637Z,71.81
2023-03-29T11:41:19.124Z,72.11
2023-03-29T11:44:04.835Z,71.97
2023-03-29T11:46:50.133Z,71.97
2023-03-29T11:49:30.238Z,71.05
2023-03-29T11:52:29.356Z,70.52
2023-03-29T11:55:04.695Z,71.41
2023-03-29T11:57:37.154Z,71.32
2023-03-29T12:00:35.129Z,70.11
2023-03-29T12:03:22.062Z,70.58
2023-03-29T12:05:54.920Z,69.86
2023-03-29T12:08:46.064Z,68.78
2023-03-29T12:11:35.096Z,69.26
2023-03-29T12:14:29.285Z,69.34
2023-03-29T12:17:13.098Z,66.86
2023-03-29T12:20:18.308Z,66.90
2023-03-29T12:22:49.234Z,67.97
2023-03-29T12:25:22.037Z,68.45
2023-03-29T12:28:27.074Z,67.63
2023-03-29T12:31:04.043Z,67.30
2023-03-29T12:33:42.501Z,66.71
2023-03-29T12:36:09.356Z,65.18
2023-03-29T12:38:37.904Z,66.05
2023-03-29T12:41:17.799Z,66.29
2023-03-29T12:43:46.002Z,68.29
2023-03-29T12:46:18.521Z,67.87
2023-03-29T12:48:49.512Z,66.74
2023-03-29T12:51:23.042Z,66.21
2023-03-29T12:53:53.005Z,65.36
2023-03-29T12:56:23.853Z,66.28
2023-03-29T12:58:50.598Z,65.73
2023-03-29T13:01:35.461Z,66.31
2023-03-29T13:04:04.050Z,66.55
2023-03-29T13:06:30.907Z,65.56
2023-03-29T13:09:19.126Z,66.72
2023-03-29T13:11:53.001Z,65.83
2023-03-29T13:14:21.308Z,66.48
2023-03-29T13:16:48.516Z,66.94
2023-03-29T13:19:33.920Z,67.32
2023-03-29T13:22:19.309Z,66.06
2023-03-29T13:25:08.140Z,65.65
2023-03-29T13:27:39.899Z,65.64
2023-03-29T13:30:21.058Z,65.34
2023-03-29T13:33:11.985Z,67.65
2023-03-29T13:35:50.740Z,66.65
2023-03-29T13:38:28.878Z,64.86
2023-03-29T13:40:59.239Z,64.58
2023-03-29T13:43:56.162Z,64.96
2023-03-29T13:46:42.391Z,64.99
2023-03-29T13:49:17.782Z,65.76
2023-03-29T13:51:53.606Z,65.56
2023-03-29T13:54:39.227Z,64.68
2023-03-29T13:57:23.434Z,65.03
2023-03-29T13:59:50.088Z,65.04
2023-03-29T14:02:42.366Z,66.22
2023-03-29T14:05:13.615Z,66.20
2023-03-29T14:07:47.098Z,66.77
2023-03-29T14:10:23.012Z,65.44
2023-03-29T14:12:49.902Z,64.83
2023-03-29T14:15:37.028Z,65.01
2023-03-29T14:18:03.934Z,65.24
2023-03-29T14:20:33.044Z,66.00
2023-03-29T14:23:00.172Z,65.83
2023-03-29T14:25:29.561Z,64.86
2023-03-29T14:27:56.602Z,64.19
2023-03-29T14:30:28.012Z,64.86
2023-03-29T14:32:56.944Z,64.21
2023-03-29T14:35:31.569Z,64.24
2023-03-29T14:37:59.473Z,65.38
2023-03-29T14:40:27.918Z,64.66
2023-03-29T14:42:55.392Z,65.35
2023-03-29T14:45:23.619Z,63.72
2023-03-29T14:47:51.697Z,63.22
2023-03-29T14:50:28.977Z,64.15
2023-03-29T14:52:57.898Z,64.31
2023-03-29T14:55:25.153Z,64.78
2023-03-29T14:57:55.027Z,64.33
2023-03-29T15:00:27.020Z,64.23
2023-03-29T15:02:57.713Z,64.03
2023-03-29T15:05:31.572Z,64.72
2023-03-29T15:07:58.362Z,65.79
2023-03-29T15:10:25.149Z,64.79
2023-03-29T15:12:52.085Z,64.71
2023-03-29T15:15:19.496Z,65.68
2023-03-29T15:17:50.903Z,66.17
2023-03-29T15:20:24.628Z,66.49
2023-03-29T15:23:13.098Z,67.45
2023-03-29T15:25:49.264Z,67.41
2023-03-29T15:28:32.845Z,67.28
2023-03-29T15:31:08.282Z,67.70
2023-03-29T15:33:40.813Z,68.43
2023-03-29T15:36:10.325Z,69.29
2023-03-29T15:41:09.932Z,67.87
2023-03-29T15:43:37.444Z,68.71
2023-03-29T15:46:04.696Z,69.02
2023-03-29T15:48:33.977Z,68.60
2023-03-29T15:51:05.513Z,69.49
2023-03-29T15:53:33.446Z,69.85
2023-03-29T15:56:02.684Z,69.87
2023-03-29T15:58:35.705Z,69.45
2023-03-29T16:01:32.840Z,71.17
2023-03-29T16:04:06.249Z,70.67
2023-03-29T16:06:34.551Z,71.00
2023-03-29T16:09:01.563Z,71.48
2023-03-29T16:11:28.565Z,72.13
2023-03-29T16:13:56.485Z,72.44
2023-03-29T16:16:23.485Z,72.92
2023-03-29T16:18:50.304Z,72.73
2023-03-29T16:21:18.930Z,73.25
2023-03-29T16:23:47.257Z,73.78
2023-03-29T16:26:16.773Z,73.88
2023-03-29T16:28:44.074Z,73.70
2023-03-29T16:31:12.722Z,74.20
2023-03-29T16:33:40.498Z,74.22
2023-03-29T16:36:08.233Z,74.62
2023-03-29T16:38:35.154Z,74.52
2023-03-29T16:41:02.223Z,74.53
2023-03-29T16:43:28.958Z,74.86
2023-03-29T16:45:55.873Z,75.10
2023-03-29T16:48:24.096Z,74.85
2023-03-29T16:50:50.947Z,74.95
2023-03-29T16:53:21.831Z,75.33
2023-03-29T16:55:48.868Z,75.30
2023-03-29T16:58:15.676Z,75.14
2023-03-29T17:00:44.434Z,75.35
2023-03-29T17:03:12.808Z,75.97
2023-03-29T17:05:42.441Z,75.73
2023-03-29T17:08:10.335Z,75.98
2023-03-29T17:10:39.720Z,76.72
2023-03-29T17:13:06.903Z,76.96
2023-03-29T17:15:33.900Z,77.16
2023-03-29T17:18:00.907Z,76.75
2023-03-29T17:20:27.713Z,77.07
2023-03-29T17:22:56.150Z,77.39
2023-03-29T17:25:23.818Z,77.52
2023-03-29T17:27:51.261Z,77.52
2023-03-29T17:30:18.090Z,78.01
2023-03-29T17:32:45.945Z,78.38
2023-03-29T17:35:13.463Z,78.34
2023-03-29T17:37:40.418Z,78.26
2023-03-29T17:40:17.363Z,79.01
2023-03-29T17:42:46.634Z,80.08
2023-03-29T17:45:14.116Z,79.83
2023-03-29T17:47:41.431Z,80.79
2023-03-29T17:50:10.881Z,81.50
2023-03-29T17:52:39.818Z,81.56
2023-03-29T17:55:13.534Z,81.15
2023-03-29T17:57:41.504Z,81.53
2023-03-29T18:00:11.037Z,81.88
2023-03-29T18:02:38.456Z,82.77
2023-03-29T18:05:07.097Z,84.10
2023-03-29T18:07:34.305Z,84.68
2023-03-29T18:10:01.300Z,86.04
2023-03-29T18:12:29.155Z,85.87
2023-03-29T18:14:59.759Z,86.12
2023-03-29T18:17:27.756Z,85.81
2023-03-29T18:19:54.666Z,85.77
2023-03-29T18:22:21.773Z,85.82
2023-03-29T18:24:49.465Z,86.19
2023-03-29T18:27:16.175Z,86.04
2023-03-29T18:29:44.235Z,86.62
2023-03-29T18:32:11.845Z,86.32
2023-03-29T18:34:39.490Z,86.06
2023-03-29T18:37:06.371Z,87.47
2023-03-29T18:39:34.986Z,87.71
2023-03-29T18:42:02.314Z,87.53
2023-03-29T18:44:29.411Z,88.17
2023-03-29T18:46:56.555Z,89.06
2023-03-29T18:49:25.105Z,88.58
2023-03-29T18:51:52.169Z,88.32
2023-03-29T18:54:18.962Z,88.26
2023-03-29T18:56:46.035Z,88.90
2023-03-29T18:59:13.017Z,88.79
2023-03-29T19:01:39.807Z,88.32
2023-03-29T19:04:06.686Z,88.32
2023-03-29T19:06:35.492Z,88.28
2023-03-29T19:09:04.520Z,87.93
2023-03-29T19:11:31.817Z,88.13
2023-03-29T19:13:58.649Z,89.46
2023-03-29T19:16:26.049Z,88.81
2023-03-29T19:18:52.872Z,89.05
2023-03-29T19:21:19.555Z,88.94
2023-03-29T19:23:46.414Z,89.20
2023-03-29T19:26:13.563Z,89.96
2023-03-29T19:28:40.285Z,89.95
2023-03-29T19:31:07.418Z,89.66
2023-03-29T19:33:34.193Z,89.64
2023-03-29T19:36:01.104Z,89.62
2023-03-29T19:38:27.944Z,90.32
2023-03-29T19:40:54.686Z,90.29
2023-03-29T19:43:22.799Z,90.63
2023-03-29T19:45:51.272Z,90.04
2023-03-29T19:48:23.402Z,90.08
2023-03-29T19:50:51.534Z,90.41
2023-03-29T19:53:18.351Z,90.33
2023-03-29T19:55:45.633Z,90.74
2023-03-29T19:58:12.921Z,91.26
2023-03-29T20:00:39.807Z,91.64
2023-03-29T20:03:09.996Z,91.82
2023-03-29T20:05:38.976Z,91.81
2023-03-29T20:08:07.184Z,91.93
2023-03-29T20:10:35.404Z,91.67
2023-03-29T20:13:05.874Z,91.45
2023-03-29T20:15:32.791Z,91.26
2023-03-29T20:18:00.564Z,91.72
2023-03-29T20:20:27.681Z,91.43
2023-03-29T20:23:04.529Z,91.61
2023-03-29T20:25:32.056Z,91.30
2023-03-29T20:27:59.868Z,90.84
2023-03-29T20:30:26.982Z,90.66
2023-03-29T20:32:53.764Z,91.18
2023-03-29T20:35:20.845Z,91.15
2023-03-29T20:37:47.648Z,91.07
2023-03-29T20:40:16.155Z,90.29
2023-03-29T20:42:43.224Z,91.13
2023-03-29T20:45:18.559Z,91.36
2023-03-29T20:47:50.680Z,91.39
2023-03-29T20:50:20.279Z,91.73
2023-03-29T20:52:47.161Z,91.95
2023-03-29T20:55:16.921Z,91.11
2023-03-29T20:57:43.576Z,90.88
2023-03-29T21:00:12.173Z,90.94
2023-03-29T21:02:39.556Z,90.74
2023-03-29T21:05:07.050Z,90.99
2023-03-29T21:07:33.996Z,91.00
2023-03-29T21:10:01.332Z,91.34
2023-03-29T21:12:28.273Z,91.13
2023-03-29T21:14:55.408Z,90.84
2023-03-29T21:17:22.800Z,90.55
2023-03-29T21:19:49.476Z,90.98
2023-03-29T21:22:16.761Z,91.16
2023-03-29T21:24:43.472Z,91.30
2023-03-29T21:27:10.166Z,91.51
2023-03-29T21:29:36.824Z,91.38
2023-03-29T21:32:03.767Z,91.51
2023-03-29T21:34:30.593Z,91.63
2023-03-29T21:36:57.350Z,90.93
2023-03-29T21:39:26.412Z,91.02
2023-03-29T21:41:53.462Z,91.03
2023-03-29T21:44:20.637Z,90.89
2023-03-29T21:46:47.439Z,91.17
2023-03-29T21:49:14.349Z,91.20
2023-03-29T21:51:41.150Z,91.13
2023-03-29T21:54:09.133Z,90.98
2023-03-29T21:56:35.838Z,90.52
2023-03-29T21:59:02.567Z,90.67
2023-03-29T22:01:29.506Z,90.46
2023-03-29T22:03:56.286Z,90.84
2023-03-29T22:06:23.262Z,90.70
2023-03-29T22:08:53.265Z,90.51
2023-03-29T22:11:20.105Z,90.32
2023-03-29T22:13:47.054Z,90.72
2023-03-29T22:16:16.794Z,90.73
2023-03-29T22:18:47.089Z,90.47
2023-03-29T22:21:17.758Z,90.38
2023-03-29T22:23:47.019Z,90.58
2023-03-29T22:26:16.101Z,90.51
2023-03-29T22:28:43.253Z,90.55
2023-03-29T22:31:13.741Z,90.19
2023-03-29T22:33:41.930Z,90.45
2023-03-29T22:36:19.228Z,90.18
2023-03-29T22:38:46.980Z,90.13
2023-03-29T22:41:15.321Z,90.13
2023-03-29T22:43:42.141Z,90.09
2023-03-29T22:46:11.287Z,90.03
2023-03-29T22:48:38.236Z,90.12
2023-03-29T22:51:05.969Z,89.87
2023-03-29T22:53:33.837Z,90.22
2023-03-29T22:56:00.499Z,89.95
2023-03-29T22:58:27.617Z,89.80
2023-03-29T23:00:54.276Z,89.88
2023-03-29T23:03:23.353Z,89.68
2023-03-29T23:05:55.947Z,89.52
2023-03-29T23:08:23.978Z,89.26
2023-03-29T23:10:51.006Z,89.30
2023-03-29T23:13:24.305Z,89.21
2023-03-29T23:15:52.808Z,88.91
2023-03-29T23:18:21.413Z,89.00
2023-03-29T23:20:50.395Z,88.75
2023-03-29T23:23:18.564Z,88.56
2023-03-29T23:25:47.797Z,88.32
2023-03-29T23:28:17.015Z,88.62
2023-03-29T23:30:43.888Z,88.70
2023-03-29T23:33:10.684Z,88.98
2023-03-29T23:35:37.973Z,89.76
2023-03-29T23:38:05.937Z,90.64
2023-03-29T23:40:33.432Z,90.77
2023-03-29T23:43:01.640Z,91.33
2023-03-29T23:45:28.283Z,91.30
2023-03-29T23:47:55.103Z,91.56
2023-03-29T23:50:22.780Z,91.27
2023-03-29T23:52:51.746Z,91.34
2023-03-29T23:55:19.587Z,91.44
2023-03-29T23:57:46.652Z,91.75
